createdAt,value
2022-07-31T00:00:16.506Z,19.17
2022-07-31T00:02:44.657Z,19.13
2022-07-31T00:05:12.184Z,19.10
2022-07-31T00:07:39.409Z,19.08
2022-07-31T00:10:07.341Z,19.05
2022-07-31T00:12:37.194Z,19.00
2022-07-31T00:15:06.996Z,18.93
2022-07-31T00:17:34.427Z,18.89
2022-07-31T00:20:02.059Z,18.84
2022-07-31T00:22:29.319Z,18.80
2022-07-31T00:24:56.866Z,18.78
2022-07-31T00:27:24.048Z,18.77
2022-07-31T00:29:51.331Z,18.74
2022-07-31T00:32:18.755Z,18.73
2022-07-31T00:34:45.898Z,18.72
2022-07-31T00:37:13.042Z,18.69
2022-07-31T00:39:40.386Z,18.64
2022-07-31T00:42:17.454Z,18.61
2022-07-31T00:44:47.894Z,18.57
2022-07-31T00:47:16.574Z,18.53
2022-07-31T00:49:44.345Z,18.50
2022-07-31T00:52:11.740Z,18.45
2022-07-31T00:54:39.487Z,18.42
2022-07-31T00:57:07.189Z,18.39
2022-07-31T00:59:34.483Z,18.38
2022-07-31T01:02:01.906Z,18.38
2022-07-31T01:04:31.113Z,18.36
2022-07-31T01:07:01.076Z,18.33
2022-07-31T01:09:28.575Z,18.31
2022-07-31T01:12:19.117Z,18.28
2022-07-31T01:14:50.144Z,18.28
2022-07-31T01:17:18.081Z,18.26
2022-07-31T01:19:47.383Z,18.23
2022-07-31T01:22:46.048Z,18.20
2022-07-31T01:25:51.857Z,18.16
2022-07-31T01:28:21.788Z,18.13
2022-07-31T01:31:05.034Z,18.09
2022-07-31T01:33:46.347Z,18.05
2022-07-31T01:36:17.820Z,18.02
2022-07-31T01:38:46.458Z,17.96
2022-07-31T01:41:16.894Z,17.96
2022-07-31T01:43:48.126Z,17.95
2022-07-31T01:46:17.140Z,17.94
2022-07-31T01:48:44.906Z,17.90
2022-07-31T01:51:12.707Z,17.89
2022-07-31T01:53:40.296Z,17.85
2022-07-31T01:56:09.089Z,17.83
2022-07-31T01:58:39.016Z,17.79
2022-07-31T02:01:09.100Z,17.77
2022-07-31T02:03:43.935Z,17.72
2022-07-31T02:06:18.022Z,17.70
2022-07-31T02:08:46.559Z,17.68
2022-07-31T02:11:16.148Z,17.64
2022-07-31T02:13:43.870Z,17.61
2022-07-31T02:16:11.999Z,17.58
2022-07-31T02:18:39.466Z,17.58
2022-07-31T02:21:06.975Z,17.56
2022-07-31T02:23:34.687Z,17.56
2022-07-31T02:26:03.659Z,17.57
2022-07-31T02:28:32.386Z,17.51
2022-07-31T02:31:01.382Z,17.46
2022-07-31T02:33:29.014Z,17.44
2022-07-31T02:35:56.904Z,17.42
2022-07-31T02:38:26.992Z,17.40
2022-07-31T02:40:58.285Z,17.36
2022-07-31T02:43:26.804Z,17.35
2022-07-31T02:45:55.710Z,17.32
2022-07-31T02:48:24.016Z,17.29
2022-07-31T02:50:51.502Z,17.26
2022-07-31T02:53:18.831Z,17.24
2022-07-31T02:55:46.681Z,17.22
2022-07-31T02:58:14.725Z,17.20
2022-07-31T03:00:44.606Z,17.17
2022-07-31T03:03:11.825Z,17.15
2022-07-31T03:05:39.034Z,17.15
2022-07-31T03:08:06.279Z,17.16
2022-07-31T03:10:33.434Z,17.18
2022-07-31T03:13:01.658Z,17.20
2022-07-31T03:15:29.540Z,17.20
2022-07-31T03:17:56.856Z,17.20
2022-07-31T03:20:26.253Z,17.19
2022-07-31T03:22:53.461Z,17.18
2022-07-31T03:25:21.838Z,17.17
2022-07-31T03:27:52.722Z,17.15
2022-07-31T03:30:25.457Z,17.14
2022-07-31T03:32:54.317Z,17.13
2022-07-31T03:35:22.129Z,17.12
2022-07-31T03:37:49.676Z,17.11
2022-07-31T03:40:17.054Z,17.09
2022-07-31T03:42:47.980Z,17.10
2022-07-31T03:45:16.028Z,17.10
2022-07-31T03:47:43.311Z,17.09
2022-07-31T03:50:11.348Z,17.09
2022-07-31T03:52:38.592Z,17.09
2022-07-31T03:55:07.930Z,17.10
2022-07-31T03:57:36.852Z,17.12
2022-07-31T04:00:05.411Z,17.15
2022-07-31T04:02:34.582Z,17.19
2022-07-31T04:05:03.228Z,17.18
2022-07-31T04:07:32.979Z,17.20
2022-07-31T04:10:00.354Z,17.24
2022-07-31T04:12:27.598Z,17.26
2022-07-31T04:14:54.778Z,17.30
2022-07-31T04:17:22.044Z,17.36
2022-07-31T04:19:49.877Z,17.39
2022-07-31T04:22:17.265Z,17.41
2022-07-31T04:24:44.439Z,17.46
2022-07-31T04:27:12.995Z,17.53
2022-07-31T04:29:40.287Z,17.57
2022-07-31T04:32:07.813Z,17.61
2022-07-31T04:34:35.098Z,17.67
2022-07-31T04:37:02.315Z,17.72
2022-07-31T04:39:29.535Z,17.78
2022-07-31T04:41:56.799Z,17.84
2022-07-31T04:44:24.051Z,17.91
2022-07-31T04:46:51.251Z,17.97
2022-07-31T04:49:18.554Z,18.00
2022-07-31T04:51:45.770Z,18.06
2022-07-31T04:54:13.031Z,18.10
2022-07-31T04:56:43.160Z,18.15
2022-07-31T04:59:12.719Z,18.22
2022-07-31T05:01:41.000Z,18.31
2022-07-31T05:04:09.157Z,18.38
2022-07-31T05:06:44.123Z,18.41
2022-07-31T05:09:18.704Z,18.49
2022-07-31T05:11:48.223Z,18.55
2022-07-31T05:14:17.891Z,18.61
2022-07-31T05:16:45.159Z,18.67
2022-07-31T05:19:13.765Z,18.75
2022-07-31T05:21:53.435Z,18.83
2022-07-31T05:24:33.965Z,18.90
2022-07-31T05:27:02.470Z,18.95
2022-07-31T05:29:30.505Z,18.98
2022-07-31T05:32:00.555Z,19.07
2022-07-31T05:34:31.397Z,19.18
2022-07-31T05:37:01.215Z,19.24
2022-07-31T05:39:29.313Z,19.29
2022-07-31T05:41:56.488Z,19.36
2022-07-31T05:44:24.558Z,19.43
2022-07-31T05:49:19.516Z,19.59
2022-07-31T05:51:54.150Z,19.65
2022-07-31T05:54:22.286Z,19.71
2022-07-31T05:56:50.024Z,19.79
2022-07-31T05:59:17.616Z,19.89
2022-07-31T06:01:44.783Z,19.95
2022-07-31T06:04:12.008Z,19.82
2022-07-31T06:06:39.184Z,19.74
2022-07-31T06:09:06.587Z,19.78
2022-07-31T06:11:34.188Z,19.86
2022-07-31T06:14:01.385Z,19.91
2022-07-31T06:16:28.686Z,20.08
2022-07-31T06:18:56.104Z,20.14
2022-07-31T06:21:26.494Z,20.27
2022-07-31T06:23:55.996Z,20.40
2022-07-31T06:26:24.358Z,20.47
2022-07-31T06:28:54.226Z,20.58
2022-07-31T06:31:22.618Z,20.71
2022-07-31T06:33:50.833Z,20.79
2022-07-31T06:36:18.791Z,20.90
2022-07-31T06:38:46.119Z,20.73
2022-07-31T06:41:33.592Z,20.85
2022-07-31T06:44:01.530Z,21.02
2022-07-31T06:46:28.797Z,21.17
2022-07-31T06:48:56.092Z,21.29
2022-07-31T06:51:30.751Z,21.41
2022-07-31T06:54:03.313Z,21.53
2022-07-31T06:56:31.121Z,21.39
2022-07-31T06:58:58.982Z,21.43
2022-07-31T07:01:26.463Z,21.58
2022-07-31T07:03:54.641Z,21.71
2022-07-31T07:06:21.833Z,21.81
2022-07-31T07:08:49.129Z,21.83
2022-07-31T07:11:16.301Z,21.82
2022-07-31T07:13:46.158Z,21.68
2022-07-31T07:16:15.195Z,21.83
2022-07-31T07:18:43.256Z,21.92
2022-07-31T07:21:11.919Z,22.05
2022-07-31T07:23:39.487Z,22.00
2022-07-31T07:26:06.908Z,22.03
2022-07-31T07:28:34.988Z,22.12
2022-07-31T07:31:03.877Z,22.26
2022-07-31T07:33:41.738Z,22.20
2022-07-31T07:36:23.541Z,22.28
2022-07-31T07:38:54.807Z,22.24
2022-07-31T07:41:24.124Z,22.46
2022-07-31T07:43:52.324Z,22.49
2022-07-31T07:46:22.100Z,22.56
2022-07-31T07:48:51.103Z,22.56
2022-07-31T07:51:19.541Z,22.70
2022-07-31T07:53:47.114Z,22.80
2022-07-31T07:56:14.376Z,22.79
2022-07-31T07:58:41.937Z,22.95
2022-07-31T08:01:09.220Z,23.14
2022-07-31T08:03:51.465Z,23.20
2022-07-31T08:06:21.000Z,23.24
2022-07-31T08:08:48.444Z,23.22
2022-07-31T08:11:17.825Z,23.15
2022-07-31T08:13:51.193Z,23.23
2022-07-31T08:16:20.375Z,23.41
2022-07-31T08:18:51.627Z,23.59
2022-07-31T08:21:19.796Z,23.70
2022-07-31T08:23:47.459Z,23.88
2022-07-31T08:26:14.725Z,23.89
2022-07-31T08:28:49.783Z,23.79
2022-07-31T08:31:17.639Z,23.66
2022-07-31T08:33:45.793Z,23.62
2022-07-31T08:36:12.997Z,23.74
2022-07-31T08:38:40.374Z,23.70
2022-07-31T08:41:07.626Z,23.78
2022-07-31T08:44:01.862Z,23.60
2022-07-31T08:46:22.692Z,23.77
2022-07-31T08:48:53.483Z,23.92
2022-07-31T08:51:24.036Z,24.15
2022-07-31T08:53:51.764Z,24.11
2022-07-31T08:56:20.528Z,24.07
2022-07-31T08:58:47.730Z,24.14
2022-07-31T09:01:15.739Z,24.44
2022-07-31T09:03:43.286Z,24.66
2022-07-31T09:06:10.985Z,24.70
2022-07-31T09:08:38.442Z,24.85
2022-07-31T09:11:08.269Z,25.10
2022-07-31T09:13:35.937Z,25.10
2022-07-31T09:16:03.918Z,25.04
2022-07-31T09:18:31.483Z,25.01
2022-07-31T09:21:03.716Z,24.97
2022-07-31T09:23:32.186Z,25.04
2022-07-31T09:26:02.060Z,25.14
2022-07-31T09:28:34.006Z,25.15
2022-07-31T09:31:02.105Z,25.10
2022-07-31T09:33:30.489Z,25.09
2022-07-31T09:35:58.515Z,25.27
2022-07-31T09:38:33.749Z,25.08
2022-07-31T09:41:55.865Z,25.40
2022-07-31T09:44:10.590Z,25.48
2022-07-31T09:46:46.927Z,25.37
2022-07-31T09:49:14.836Z,25.58
2022-07-31T09:51:45.121Z,25.70
2022-07-31T09:54:25.373Z,25.77
2022-07-31T09:56:52.669Z,25.85
2022-07-31T09:59:20.008Z,26.13
2022-07-31T10:01:51.208Z,26.39
2022-07-31T10:04:19.751Z,26.53
2022-07-31T10:06:52.239Z,26.50
2022-07-31T10:09:20.922Z,26.62
2022-07-31T10:11:49.972Z,26.74
2022-07-31T10:14:44.811Z,27.00
2022-07-31T10:17:12.883Z,27.24
2022-07-31T10:19:42.324Z,27.36
2022-07-31T10:22:10.036Z,27.32
2022-07-31T10:24:47.718Z,26.99
2022-07-31T10:27:17.198Z,27.00
2022-07-31T10:29:44.880Z,27.04
2022-07-31T10:32:12.270Z,27.23
2022-07-31T10:34:39.799Z,27.17
2022-07-31T10:37:45.935Z,27.26
2022-07-31T10:40:20.124Z,27.41
2022-07-31T10:43:11.881Z,27.36
2022-07-31T10:45:50.061Z,27.75
2022-07-31T10:48:17.357Z,27.91
2022-07-31T10:50:44.778Z,28.12
2022-07-31T10:53:17.238Z,27.62
2022-07-31T10:55:45.055Z,27.55
2022-07-31T10:58:14.366Z,27.79
2022-07-31T11:00:41.804Z,28.15
2022-07-31T11:03:17.910Z,28.28
2022-07-31T11:06:01.485Z,28.18
2022-07-31T11:08:44.525Z,28.65
2022-07-31T11:11:12.813Z,28.82
2022-07-31T11:13:46.777Z,28.79
2022-07-31T11:16:13.983Z,29.07
2022-07-31T11:18:41.152Z,29.41
2022-07-31T11:21:36.066Z,28.98
2022-07-31T11:24:03.899Z,29.26
2022-07-31T11:26:41.034Z,29.11
2022-07-31T11:29:59.620Z,29.08
2022-07-31T11:32:16.801Z,29.31
2022-07-31T11:34:53.924Z,29.71
2022-07-31T11:37:35.314Z,30.07
2022-07-31T11:40:14.026Z,30.17
2022-07-31T11:42:59.752Z,30.22
2022-07-31T11:45:33.342Z,30.07
2022-07-31T11:48:12.963Z,30.16
2022-07-31T11:50:41.856Z,29.72
2022-07-31T11:53:09.436Z,29.51
2022-07-31T11:55:46.485Z,29.24
2022-07-31T11:58:15.200Z,29.58
2022-07-31T12:00:53.031Z,29.76
2022-07-31T12:03:23.119Z,29.85
2022-07-31T12:05:52.339Z,30.07
2022-07-31T12:08:20.343Z,30.05
2022-07-31T12:10:47.967Z,30.44
2022-07-31T12:13:19.140Z,30.23
2022-07-31T12:16:06.061Z,30.58
2022-07-31T12:18:46.480Z,30.51
2022-07-31T12:21:14.136Z,30.64
2022-07-31T12:23:43.996Z,30.37
2022-07-31T12:26:13.391Z,29.95
2022-07-31T12:28:40.787Z,29.74
2022-07-31T12:31:07.920Z,29.55
2022-07-31T12:33:42.699Z,29.03
2022-07-31T12:36:14.677Z,28.91
2022-07-31T12:38:45.127Z,28.56
2022-07-31T12:41:13.576Z,28.37
2022-07-31T12:43:50.969Z,28.33
2022-07-31T12:46:33.668Z,28.28
2022-07-31T12:49:01.202Z,28.64
2022-07-31T12:51:45.637Z,28.99
2022-07-31T12:54:18.034Z,28.67
2022-07-31T12:56:46.535Z,28.65
2022-07-31T12:59:14.175Z,28.59
2022-07-31T13:01:41.693Z,28.64
2022-07-31T13:04:18.902Z,28.63
2022-07-31T13:06:48.852Z,28.63
2022-07-31T13:09:16.218Z,28.54
2022-07-31T13:11:46.871Z,28.87
2022-07-31T13:14:19.765Z,28.84
2022-07-31T13:16:47.944Z,29.34
2022-07-31T13:19:15.470Z,29.81
2022-07-31T13:21:48.378Z,30.43
2022-07-31T13:24:18.651Z,31.18
2022-07-31T13:26:46.107Z,31.89
2022-07-31T13:29:13.465Z,32.33
2022-07-31T13:31:40.593Z,32.58
2022-07-31T13:34:07.722Z,32.65
2022-07-31T13:36:38.830Z,31.78
2022-07-31T13:39:07.295Z,31.55
2022-07-31T13:41:35.602Z,32.06
2022-07-31T13:44:03.682Z,32.16
2022-07-31T13:46:31.608Z,32.72
2022-07-31T13:48:59.564Z,32.71
2022-07-31T13:51:29.322Z,32.80
2022-07-31T13:53:56.574Z,33.30
2022-07-31T13:56:39.532Z,33.70
2022-07-31T13:59:11.721Z,33.33
2022-07-31T14:02:04.574Z,33.73
2022-07-31T14:04:28.578Z,33.68
2022-07-31T14:07:00.940Z,33.45
2022-07-31T14:09:28.233Z,33.78
2022-07-31T14:11:56.153Z,33.29
2022-07-31T14:14:23.592Z,33.56
2022-07-31T14:16:51.083Z,34.38
2022-07-31T14:19:18.328Z,35.15
2022-07-31T14:21:56.313Z,36.91
2022-07-31T14:24:32.510Z,39.06
2022-07-31T14:26:59.607Z,40.24
2022-07-31T14:29:27.038Z,41.20
2022-07-31T14:31:54.172Z,42.21
2022-07-31T14:34:21.254Z,41.56
2022-07-31T14:36:48.388Z,43.62
2022-07-31T14:39:15.859Z,45.79
2022-07-31T14:41:43.293Z,47.67
2022-07-31T14:44:10.408Z,48.79
2022-07-31T14:46:37.535Z,49.09
2022-07-31T14:49:05.392Z,49.90
2022-07-31T14:51:32.694Z,47.96
2022-07-31T14:53:59.918Z,49.44
2022-07-31T14:56:45.441Z,50.50
2022-07-31T14:59:14.181Z,51.22
2022-07-31T15:01:41.579Z,52.71
2022-07-31T15:04:08.708Z,52.64
2022-07-31T15:06:55.510Z,52.08
2022-07-31T15:09:24.305Z,48.09
2022-07-31T15:12:00.526Z,46.63
2022-07-31T15:14:29.796Z,45.07
2022-07-31T15:16:57.302Z,43.56
2022-07-31T15:19:24.427Z,42.94
2022-07-31T15:22:15.856Z,45.52
2022-07-31T15:24:43.675Z,48.41
2022-07-31T15:27:15.440Z,50.50
2022-07-31T15:30:00.561Z,49.48
2022-07-31T15:32:30.144Z,52.84
2022-07-31T15:34:57.272Z,54.17
2022-07-31T15:37:24.365Z,54.30
2022-07-31T15:40:02.272Z,53.22
2022-07-31T15:42:38.213Z,49.37
2022-07-31T15:45:10.744Z,47.22
2022-07-31T15:47:39.186Z,49.32
2022-07-31T15:50:07.280Z,50.99
2022-07-31T15:52:34.525Z,49.04
2022-07-31T15:55:02.160Z,47.12
2022-07-31T15:57:29.352Z,45.04
2022-07-31T15:59:56.640Z,42.20
2022-07-31T16:02:24.436Z,39.50
2022-07-31T16:04:54.869Z,37.87
2022-07-31T16:08:28.664Z,36.47
2022-07-31T16:10:15.288Z,35.55
2022-07-31T16:12:45.606Z,35.18
2022-07-31T16:15:13.239Z,34.69
2022-07-31T16:17:40.847Z,33.75
2022-07-31T16:20:11.858Z,33.06
2022-07-31T16:22:41.778Z,32.12
2022-07-31T16:25:10.401Z,32.92
2022-07-31T16:27:37.760Z,34.73
2022-07-31T16:30:06.817Z,34.69
2022-07-31T16:32:34.092Z,33.98
2022-07-31T16:35:01.831Z,32.93
2022-07-31T16:37:51.712Z,32.26
2022-07-31T16:40:28.136Z,31.58
2022-07-31T16:42:56.786Z,31.15
2022-07-31T16:45:23.905Z,30.71
2022-07-31T16:47:51.923Z,30.51
2022-07-31T16:50:19.766Z,30.35
2022-07-31T16:52:50.088Z,30.41
2022-07-31T16:55:19.937Z,30.19
2022-07-31T16:57:47.079Z,30.13
2022-07-31T17:00:14.440Z,30.15
2022-07-31T17:02:41.669Z,30.02
2022-07-31T17:05:08.871Z,30.02
2022-07-31T17:07:36.773Z,30.12
2022-07-31T17:10:04.279Z,30.11
2022-07-31T17:12:31.442Z,30.00
2022-07-31T17:14:58.603Z,29.80
2022-07-31T17:17:25.712Z,29.63
2022-07-31T17:19:55.139Z,29.49
2022-07-31T17:22:22.501Z,29.34
2022-07-31T17:24:51.543Z,29.06
2022-07-31T17:27:20.403Z,28.70
2022-07-31T17:29:47.549Z,28.52
2022-07-31T17:32:14.692Z,28.46
2022-07-31T17:34:45.001Z,28.42
2022-07-31T17:37:12.606Z,28.33
2022-07-31T17:39:40.221Z,28.20
2022-07-31T17:42:09.493Z,28.10
2022-07-31T17:44:37.677Z,28.02
2022-07-31T17:47:06.565Z,27.89
2022-07-31T17:49:34.203Z,27.80
2022-07-31T17:52:01.406Z,27.66
2022-07-31T17:54:30.136Z,27.60
2022-07-31T17:56:57.468Z,27.52
2022-07-31T17:59:25.519Z,27.43
2022-07-31T18:01:59.421Z,27.37
2022-07-31T18:04:30.691Z,27.24
2022-07-31T18:06:58.933Z,27.19
2022-07-31T18:09:26.408Z,27.11
2022-07-31T18:11:54.007Z,27.02
2022-07-31T18:14:24.357Z,26.94
2022-07-31T18:16:52.470Z,26.89
2022-07-31T18:19:21.451Z,26.87
2022-07-31T18:21:48.834Z,26.82
2022-07-31T18:24:15.981Z,26.76
2022-07-31T18:26:43.105Z,26.72
2022-07-31T18:29:10.408Z,26.64
2022-07-31T18:31:37.565Z,26.59
2022-07-31T18:34:05.067Z,26.54
2022-07-31T18:36:33.205Z,26.51
2022-07-31T18:39:00.905Z,26.45
2022-07-31T18:41:28.318Z,26.40
2022-07-31T18:43:55.574Z,26.35
2022-07-31T18:46:24.610Z,26.30
2022-07-31T18:48:55.845Z,26.23
2022-07-31T18:51:24.981Z,26.18
2022-07-31T18:53:54.524Z,26.15
2022-07-31T18:56:23.508Z,26.11
2022-07-31T18:58:51.815Z,26.06
2022-07-31T19:01:19.060Z,26.01
2022-07-31T19:03:46.604Z,25.97
2022-07-31T19:06:13.766Z,25.92
2022-07-31T19:08:40.952Z,25.87
2022-07-31T19:11:08.071Z,25.83
2022-07-31T19:13:35.283Z,25.79
2022-07-31T19:16:02.613Z,25.74
2022-07-31T19:18:29.736Z,25.69
2022-07-31T19:21:22.864Z,25.66
2022-07-31T19:23:44.351Z,25.61
2022-07-31T19:26:11.496Z,25.56
2022-07-31T19:28:39.856Z,25.52
2022-07-31T19:31:07.425Z,25.48
2022-07-31T19:33:34.528Z,25.43
2022-07-31T19:36:03.152Z,25.39
2022-07-31T19:38:31.625Z,25.36
2022-07-31T19:40:59.137Z,25.32
2022-07-31T19:43:26.654Z,25.27
2022-07-31T19:46:09.786Z,25.22
2022-07-31T19:48:40.812Z,25.19
2022-07-31T19:51:08.026Z,25.14
2022-07-31T19:53:35.161Z,25.09
2022-07-31T19:56:05.671Z,25.06
2022-07-31T19:58:34.797Z,25.00
2022-07-31T20:01:03.661Z,24.96
2022-07-31T20:03:31.113Z,24.93
2022-07-31T20:05:58.394Z,24.91
2022-07-31T20:08:25.525Z,24.87
2022-07-31T20:10:52.977Z,24.84
2022-07-31T20:13:20.295Z,24.80
2022-07-31T20:15:52.458Z,24.76
2022-07-31T20:18:27.258Z,24.73
2022-07-31T20:20:57.018Z,24.68
2022-07-31T20:23:27.620Z,24.64
2022-07-31T20:25:55.006Z,24.61
2022-07-31T20:28:22.151Z,24.58
2022-07-31T20:30:49.555Z,24.56
2022-07-31T20:33:16.676Z,24.56
2022-07-31T20:35:48.471Z,24.54
2022-07-31T20:38:18.308Z,24.54
2022-07-31T20:40:48.038Z,24.50
2022-07-31T20:43:20.859Z,24.46
2022-07-31T20:45:48.222Z,24.44
2022-07-31T20:48:21.040Z,24.40
2022-07-31T20:50:48.618Z,24.37
2022-07-31T20:53:16.584Z,24.33
2022-07-31T20:55:49.266Z,24.32
2022-07-31T20:58:20.868Z,24.31
2022-07-31T21:00:49.117Z,24.29
2022-07-31T21:03:16.717Z,24.30
2022-07-31T21:05:44.879Z,24.26
2022-07-31T21:08:12.489Z,24.23
2022-07-31T21:10:39.705Z,24.21
2022-07-31T21:13:06.879Z,24.20
2022-07-31T21:15:43.129Z,24.19
2022-07-31T21:18:18.788Z,24.17
2022-07-31T21:20:51.709Z,24.16
2022-07-31T21:23:24.253Z,24.12
2022-07-31T21:25:57.096Z,24.12
2022-07-31T21:28:26.031Z,24.12
2022-07-31T21:30:56.631Z,24.08
2022-07-31T21:33:25.228Z,24.05
2022-07-31T21:35:53.174Z,24.02
2022-07-31T21:38:20.646Z,23.96
2022-07-31T21:40:48.335Z,23.93
2022-07-31T21:43:18.786Z,23.89
2022-07-31T21:45:57.450Z,23.86
2022-07-31T21:48:29.732Z,23.81
2022-07-31T21:50:56.988Z,23.78
2022-07-31T21:53:24.566Z,23.74
2022-07-31T21:55:52.097Z,23.70
2022-07-31T21:58:19.381Z,23.66
2022-07-31T22:00:46.599Z,23.61
2022-07-31T22:03:13.774Z,23.61
2022-07-31T22:05:59.937Z,23.60
2022-07-31T22:08:27.076Z,23.57
2022-07-31T22:10:54.238Z,23.57
2022-07-31T22:13:21.452Z,23.57
2022-07-31T22:15:58.228Z,23.58
2022-07-31T22:18:28.987Z,23.57
2022-07-31T22:20:56.876Z,23.53
2022-07-31T22:23:24.460Z,23.50
2022-07-31T22:25:51.604Z,23.50
2022-07-31T22:28:22.507Z,23.50
2022-07-31T22:30:51.196Z,23.49
2022-07-31T22:33:18.686Z,23.43
2022-07-31T22:36:00.238Z,23.43
2022-07-31T22:38:29.786Z,23.38
2022-07-31T22:40:58.421Z,23.32
2022-07-31T22:44:10.174Z,23.29
2022-07-31T22:46:13.588Z,23.25
2022-07-31T22:48:41.201Z,23.19
2022-07-31T22:51:09.131Z,23.04
2022-07-31T22:53:42.394Z,22.86
2022-07-31T22:56:09.599Z,22.83
2022-07-31T22:58:36.701Z,22.66
2022-07-31T23:01:03.998Z,22.56
2022-07-31T23:03:31.117Z,22.48
2022-07-31T23:06:02.549Z,22.37
2022-07-31T23:08:45.384Z,22.33
2022-07-31T23:11:12.781Z,22.26
2022-07-31T23:13:40.031Z,22.19
2022-07-31T23:16:07.141Z,22.12
2022-07-31T23:18:34.255Z,22.13
2022-07-31T23:21:01.392Z,22.09
2022-07-31T23:23:28.506Z,22.06
2022-07-31T23:25:55.630Z,21.96
2022-07-31T23:28:22.783Z,21.89
2022-07-31T23:30:50.364Z,21.85
2022-07-31T23:33:18.733Z,21.67
2022-07-31T23:35:45.837Z,21.62
2022-07-31T23:38:12.978Z,21.62
2022-07-31T23:40:40.153Z,21.59
2022-07-31T23:43:07.477Z,21.53
2022-07-31T23:45:36.064Z,21.54
2022-07-31T23:48:04.381Z,21.51
2022-07-31T23:50:32.083Z,21.44
2022-07-31T23:52:59.281Z,21.41
2022-07-31T23:55:26.445Z,21.41
2022-07-31T23:57:53.582Z,21.40
